sensor_id;sensor_type;location;lat;lon;timestamp;P1;durP1;ratioP1;P2;durP2;ratioP2
34737;SDS011;39910;47.154;27.614;2023-11-21T00:00:32;10.65;;;10.15;;
34737;SDS011;39910;47.154;27.614;2023-11-21T00:02:57;10.05;;;9.57;;
34737;SDS011;39910;47.154;27.614;2023-11-21T00:05:22;9.88;;;9.45;;
34737;SDS011;39910;47.154;27.614;2023-11-21T00:07:48;10.20;;;9.70;;
34737;SDS011;39910;47.154;27.614;2023-11-21T00:10:13;10.35;;;9.85;;
34737;SDS011;39910;47.154;27.614;2023-11-21T00:12:39;9.88;;;9.43;;
34737;SDS011;39910;47.154;27.614;2023-11-21T00:15:07;10.43;;;9.93;;
34737;SDS011;39910;47.154;27.614;2023-11-21T00:17:36;9.82;;;9.35;;
34737;SDS011;39910;47.154;27.614;2023-11-21T00:20:01;9.82;;;9.40;;
34737;SDS011;39910;47.154;27.614;2023-11-21T00:22:29;9.93;;;9.50;;
34737;SDS011;39910;47.154;27.614;2023-11-21T00:24:54;10.40;;;9.90;;
34737;SDS011;39910;47.154;27.614;2023-11-21T00:27:19;10.10;;;9.60;;
34737;SDS011;39910;47.154;27.614;2023-11-21T00:29:45;10.55;;;10.05;;
34737;SDS011;39910;47.154;27.614;2023-11-21T00:32:10;10.77;;;10.27;;
34737;SDS011;39910;47.154;27.614;2023-11-21T00:34:36;10.50;;;10.00;;
34737;SDS011;39910;47.154;27.614;2023-11-21T00:37:01;10.20;;;9.70;;
34737;SDS011;39910;47.154;27.614;2023-11-21T00:39:27;10.00;;;9.50;;
34737;SDS011;39910;47.154;27.614;2023-11-21T00:41:53;10.35;;;9.85;;
34737;SDS011;39910;47.154;27.614;2023-11-21T00:44:18;10.63;;;10.13;;
34737;SDS011;39910;47.154;27.614;2023-11-21T00:46:43;10.23;;;9.73;;
34737;SDS011;39910;47.154;27.614;2023-11-21T00:49:09;9.60;;;9.20;;
34737;SDS011;39910;47.154;27.614;2023-11-21T00:51:34;10.00;;;9.50;;
34737;SDS011;39910;47.154;27.614;2023-11-21T00:54:00;9.88;;;9.48;;
34737;SDS011;39910;47.154;27.614;2023-11-21T00:56:25;10.43;;;9.93;;
34737;SDS011;39910;47.154;27.614;2023-11-21T00:58:50;10.68;;;10.18;;
34737;SDS011;39910;47.154;27.614;2023-11-21T01:01:18;10.80;;;10.27;;
34737;SDS011;39910;47.154;27.614;2023-11-21T01:03:43;10.57;;;10.07;;
34737;SDS011;39910;47.154;27.614;2023-11-21T01:06:08;10.18;;;9.68;;
34737;SDS011;39910;47.154;27.614;2023-11-21T01:08:34;10.80;;;10.30;;
34737;SDS011;39910;47.154;27.614;2023-11-21T01:11:00;10.55;;;10.05;;
34737;SDS011;39910;47.154;27.614;2023-11-21T01:13:26;10.50;;;10.00;;
34737;SDS011;39910;47.154;27.614;2023-11-21T01:15:52;11.23;;;10.63;;
34737;SDS011;39910;47.154;27.614;2023-11-21T01:18:18;10.25;;;9.75;;
34737;SDS011;39910;47.154;27.614;2023-11-21T01:20:43;9.85;;;9.45;;
34737;SDS011;39910;47.154;27.614;2023-11-21T01:23:09;10.43;;;9.93;;
34737;SDS011;39910;47.154;27.614;2023-11-21T01:25:34;11.60;;;11.00;;
34737;SDS011;39910;47.154;27.614;2023-11-21T01:27:59;10.63;;;10.13;;
34737;SDS011;39910;47.154;27.614;2023-11-21T01:30:25;10.55;;;10.05;;
34737;SDS011;39910;47.154;27.614;2023-11-21T01:32:50;10.30;;;9.80;;
34737;SDS011;39910;47.154;27.614;2023-11-21T01:35:15;10.20;;;9.70;;
34737;SDS011;39910;47.154;27.614;2023-11-21T01:37:41;10.40;;;9.90;;
34737;SDS011;39910;47.154;27.614;2023-11-21T01:40:06;9.90;;;9.50;;
34737;SDS011;39910;47.154;27.614;2023-11-21T01:42:38;10.38;;;9.88;;
34737;SDS011;39910;47.154;27.614;2023-11-21T01:45:03;10.05;;;9.55;;
34737;SDS011;39910;47.154;27.614;2023-11-21T01:47:30;9.65;;;9.25;;
34737;SDS011;39910;47.154;27.614;2023-11-21T01:49:56;10.63;;;10.13;;
34737;SDS011;39910;47.154;27.614;2023-11-21T01:52:21;10.30;;;9.80;;
34737;SDS011;39910;47.154;27.614;2023-11-21T01:54:47;10.07;;;9.57;;
34737;SDS011;39910;47.154;27.614;2023-11-21T01:57:12;10.27;;;9.77;;
34737;SDS011;39910;47.154;27.614;2023-11-21T01:59:38;10.45;;;9.95;;
34737;SDS011;39910;47.154;27.614;2023-11-21T02:02:07;10.18;;;9.68;;
34737;SDS011;39910;47.154;27.614;2023-11-21T02:04:33;10.25;;;9.75;;
34737;SDS011;39910;47.154;27.614;2023-11-21T02:06:59;10.07;;;9.57;;
34737;SDS011;39910;47.154;27.614;2023-11-21T02:09:27;10.50;;;10.00;;
34737;SDS011;39910;47.154;27.614;2023-11-21T02:11:54;10.30;;;9.80;;
34737;SDS011;39910;47.154;27.614;2023-11-21T02:14:20;10.30;;;9.80;;
34737;SDS011;39910;47.154;27.614;2023-11-21T02:16:47;10.55;;;10.05;;
34737;SDS011;39910;47.154;27.614;2023-11-21T02:19:14;9.70;;;9.30;;
34737;SDS011;39910;47.154;27.614;2023-11-21T02:21:43;9.70;;;9.30;;
34737;SDS011;39910;47.154;27.614;2023-11-21T02:24:10;10.27;;;9.77;;
34737;SDS011;39910;47.154;27.614;2023-11-21T02:26:35;10.50;;;10.00;;
34737;SDS011;39910;47.154;27.614;2023-11-21T02:29:01;10.60;;;10.10;;
34737;SDS011;39910;47.154;27.614;2023-11-21T02:31:28;10.25;;;9.75;;
34737;SDS011;39910;47.154;27.614;2023-11-21T02:33:53;10.85;;;10.30;;
34737;SDS011;39910;47.154;27.614;2023-11-21T02:36:19;10.88;;;10.35;;
34737;SDS011;39910;47.154;27.614;2023-11-21T02:38:46;10.25;;;9.75;;
34737;SDS011;39910;47.154;27.614;2023-11-21T02:41:12;10.60;;;10.10;;
34737;SDS011;39910;47.154;27.614;2023-11-21T02:43:37;10.88;;;10.32;;
34737;SDS011;39910;47.154;27.614;2023-11-21T02:46:03;10.68;;;10.18;;
34737;SDS011;39910;47.154;27.614;2023-11-21T02:48:29;9.98;;;9.50;;
34737;SDS011;39910;47.154;27.614;2023-11-21T02:50:55;10.23;;;9.73;;
34737;SDS011;39910;47.154;27.614;2023-11-21T02:53:21;10.05;;;9.55;;
34737;SDS011;39910;47.154;27.614;2023-11-21T02:55:46;10.88;;;10.35;;
34737;SDS011;39910;47.154;27.614;2023-11-21T02:58:11;10.85;;;10.30;;
34737;SDS011;39910;47.154;27.614;2023-11-21T03:00:37;9.70;;;9.30;;
34737;SDS011;39910;47.154;27.614;2023-11-21T03:03:02;10.75;;;10.25;;
34737;SDS011;39910;47.154;27.614;2023-11-21T03:05:29;10.23;;;9.73;;
34737;SDS011;39910;47.154;27.614;2023-11-21T03:07:55;10.00;;;9.50;;
34737;SDS011;39910;47.154;27.614;2023-11-21T03:10:20;10.30;;;9.80;;
34737;SDS011;39910;47.154;27.614;2023-11-21T03:12:46;10.25;;;9.75;;
34737;SDS011;39910;47.154;27.614;2023-11-21T03:15:11;10.38;;;9.88;;
34737;SDS011;39910;47.154;27.614;2023-11-21T03:17:36;9.65;;;9.25;;
34737;SDS011;39910;47.154;27.614;2023-11-21T03:20:02;9.95;;;9.45;;
34737;SDS011;39910;47.154;27.614;2023-11-21T03:22:29;10.10;;;9.60;;
34737;SDS011;39910;47.154;27.614;2023-11-21T03:24:54;9.75;;;9.35;;
34737;SDS011;39910;47.154;27.614;2023-11-21T03:27:19;10.27;;;9.77;;
34737;SDS011;39910;47.154;27.614;2023-11-21T03:29:44;9.80;;;9.40;;
34737;SDS011;39910;47.154;27.614;2023-11-21T03:32:11;10.85;;;10.30;;
34737;SDS011;39910;47.154;27.614;2023-11-21T03:34:52;10.13;;;9.63;;
34737;SDS011;39910;47.154;27.614;2023-11-21T03:37:17;11.00;;;10.40;;
34737;SDS011;39910;47.154;27.614;2023-11-21T03:39:43;10.48;;;9.98;;
34737;SDS011;39910;47.154;27.614;2023-11-21T03:42:08;10.80;;;10.27;;
34737;SDS011;39910;47.154;27.614;2023-11-21T03:44:33;9.80;;;9.40;;
34737;SDS011;39910;47.154;27.614;2023-11-21T03:46:59;10.30;;;9.80;;
34737;SDS011;39910;47.154;27.614;2023-11-21T03:49:24;10.57;;;10.07;;
34737;SDS011;39910;47.154;27.614;2023-11-21T03:51:49;10.70;;;10.20;;
34737;SDS011;39910;47.154;27.614;2023-11-21T03:54:14;10.23;;;9.73;;
34737;SDS011;39910;47.154;27.614;2023-11-21T03:56:40;10.27;;;9.77;;
34737;SDS011;39910;47.154;27.614;2023-11-21T03:59:05;10.18;;;9.68;;
34737;SDS011;39910;47.154;27.614;2023-11-21T04:01:30;11.23;;;10.63;;
34737;SDS011;39910;47.154;27.614;2023-11-21T04:03:56;10.60;;;10.10;;
34737;SDS011;39910;47.154;27.614;2023-11-21T04:06:22;11.07;;;10.48;;
34737;SDS011;39910;47.154;27.614;2023-11-21T04:08:47;10.55;;;10.05;;
34737;SDS011;39910;47.154;27.614;2023-11-21T04:11:12;10.43;;;9.93;;
34737;SDS011;39910;47.154;27.614;2023-11-21T04:13:41;10.55;;;10.05;;
34737;SDS011;39910;47.154;27.614;2023-11-21T04:16:07;10.27;;;9.77;;
34737;SDS011;39910;47.154;27.614;2023-11-21T04:18:34;10.45;;;9.95;;
34737;SDS011;39910;47.154;27.614;2023-11-21T04:21:00;9.75;;;9.35;;
34737;SDS011;39910;47.154;27.614;2023-11-21T04:23:25;11.30;;;10.70;;
34737;SDS011;39910;47.154;27.614;2023-11-21T04:25:51;10.18;;;9.68;;
34737;SDS011;39910;47.154;27.614;2023-11-21T04:28:17;9.90;;;9.43;;
34737;SDS011;39910;47.154;27.614;2023-11-21T04:30:43;10.77;;;10.25;;
34737;SDS011;39910;47.154;27.614;2023-11-21T04:33:09;10.25;;;9.75;;
34737;SDS011;39910;47.154;27.614;2023-11-21T04:35:34;10.00;;;9.50;;
34737;SDS011;39910;47.154;27.614;2023-11-21T04:37:59;10.02;;;9.52;;
34737;SDS011;39910;47.154;27.614;2023-11-21T04:40:25;11.10;;;10.50;;
34737;SDS011;39910;47.154;27.614;2023-11-21T04:42:52;10.40;;;9.90;;
34737;SDS011;39910;47.154;27.614;2023-11-21T04:45:17;10.30;;;9.80;;
34737;SDS011;39910;47.154;27.614;2023-11-21T04:47:42;10.50;;;10.00;;
34737;SDS011;39910;47.154;27.614;2023-11-21T04:50:08;10.30;;;9.80;;
34737;SDS011;39910;47.154;27.614;2023-11-21T04:52:34;10.60;;;10.10;;
34737;SDS011;39910;47.154;27.614;2023-11-21T04:54:59;11.07;;;10.48;;
34737;SDS011;39910;47.154;27.614;2023-11-21T04:57:26;9.90;;;9.40;;
34737;SDS011;39910;47.154;27.614;2023-11-21T04:59:53;10.43;;;9.93;;
34737;SDS011;39910;47.154;27.614;2023-11-21T05:02:18;10.15;;;9.65;;
34737;SDS011;39910;47.154;27.614;2023-11-21T05:04:44;10.52;;;10.02;;
34737;SDS011;39910;47.154;27.614;2023-11-21T05:07:09;9.90;;;9.40;;
34737;SDS011;39910;47.154;27.614;2023-11-21T05:09:35;11.48;;;10.88;;
34737;SDS011;39910;47.154;27.614;2023-11-21T05:12:01;11.45;;;10.85;;
34737;SDS011;39910;47.154;27.614;2023-11-21T05:14:26;10.50;;;10.00;;
34737;SDS011;39910;47.154;27.614;2023-11-21T05:16:52;11.07;;;10.48;;
34737;SDS011;39910;47.154;27.614;2023-11-21T05:19:17;10.57;;;10.07;;
34737;SDS011;39910;47.154;27.614;2023-11-21T05:21:42;10.45;;;9.95;;
34737;SDS011;39910;47.154;27.614;2023-11-21T05:24:08;10.88;;;10.38;;
34737;SDS011;39910;47.154;27.614;2023-11-21T05:26:34;10.45;;;9.95;;
34737;SDS011;39910;47.154;27.614;2023-11-21T05:29:00;11.20;;;10.60;;
34737;SDS011;39910;47.154;27.614;2023-11-21T05:31:25;11.70;;;11.10;;
34737;SDS011;39910;47.154;27.614;2023-11-21T05:33:51;11.23;;;10.63;;
34737;SDS011;39910;47.154;27.614;2023-11-21T05:36:16;10.30;;;9.80;;
34737;SDS011;39910;47.154;27.614;2023-11-21T05:38:41;12.60;;;11.90;;
34737;SDS011;39910;47.154;27.614;2023-11-21T05:41:07;12.75;;;12.05;;
34737;SDS011;39910;47.154;27.614;2023-11-21T05:43:33;10.40;;;9.90;;
34737;SDS011;39910;47.154;27.614;2023-11-21T05:46:01;10.68;;;10.13;;
34737;SDS011;39910;47.154;27.614;2023-11-21T05:48:27;10.95;;;10.43;;
34737;SDS011;39910;47.154;27.614;2023-11-21T05:50:52;11.35;;;10.75;;
34737;SDS011;39910;47.154;27.614;2023-11-21T05:53:17;10.63;;;10.13;;
34737;SDS011;39910;47.154;27.614;2023-11-21T05:55:43;10.85;;;10.35;;
34737;SDS011;39910;47.154;27.614;2023-11-21T05:58:08;11.38;;;10.77;;
34737;SDS011;39910;47.154;27.614;2023-11-21T06:00:34;10.80;;;10.30;;
34737;SDS011;39910;47.154;27.614;2023-11-21T06:02:59;11.07;;;10.48;;
34737;SDS011;39910;47.154;27.614;2023-11-21T06:05:25;10.57;;;10.07;;
34737;SDS011;39910;47.154;27.614;2023-11-21T06:07:51;10.40;;;9.90;;
34737;SDS011;39910;47.154;27.614;2023-11-21T06:10:19;11.82;;;11.23;;
34737;SDS011;39910;47.154;27.614;2023-11-21T06:12:45;11.68;;;11.07;;
34737;SDS011;39910;47.154;27.614;2023-11-21T06:15:10;11.07;;;10.55;;
34737;SDS011;39910;47.154;27.614;2023-11-21T06:17:38;10.60;;;10.10;;
34737;SDS011;39910;47.154;27.614;2023-11-21T06:20:07;10.70;;;10.20;;
34737;SDS011;39910;47.154;27.614;2023-11-21T06:22:40;10.60;;;10.10;;
34737;SDS011;39910;47.154;27.614;2023-11-21T06:25:06;11.23;;;10.63;;
34737;SDS011;39910;47.154;27.614;2023-11-21T06:27:33;9.98;;;9.48;;
34737;SDS011;39910;47.154;27.614;2023-11-21T06:29:59;9.80;;;9.40;;
34737;SDS011;39910;47.154;27.614;2023-11-21T06:32:24;10.60;;;10.10;;
34737;SDS011;39910;47.154;27.614;2023-11-21T06:34:50;10.52;;;10.02;;
34737;SDS011;39910;47.154;27.614;2023-11-21T06:37:15;11.45;;;10.85;;
34737;SDS011;39910;47.154;27.614;2023-11-21T06:39:41;11.00;;;10.40;;
34737;SDS011;39910;47.154;27.614;2023-11-21T06:42:07;10.77;;;10.27;;
34737;SDS011;39910;47.154;27.614;2023-11-21T06:44:32;11.30;;;10.70;;
34737;SDS011;39910;47.154;27.614;2023-11-21T06:46:58;11.10;;;10.50;;
34737;SDS011;39910;47.154;27.614;2023-11-21T06:49:24;10.35;;;9.85;;
34737;SDS011;39910;47.154;27.614;2023-11-21T06:51:49;9.80;;;9.40;;
34737;SDS011;39910;47.154;27.614;2023-11-21T06:54:15;10.18;;;9.68;;
34737;SDS011;39910;47.154;27.614;2023-11-21T06:56:40;10.55;;;10.05;;
34737;SDS011;39910;47.154;27.614;2023-11-21T06:59:06;11.38;;;10.77;;
34737;SDS011;39910;47.154;27.614;2023-11-21T07:01:31;10.90;;;10.40;;
34737;SDS011;39910;47.154;27.614;2023-11-21T07:04:03;10.48;;;9.98;;
34737;SDS011;39910;47.154;27.614;2023-11-21T07:06:29;11.57;;;10.98;;
34737;SDS011;39910;47.154;27.614;2023-11-21T07:08:54;11.43;;;10.82;;
34737;SDS011;39910;47.154;27.614;2023-11-21T07:11:19;11.05;;;10.45;;
34737;SDS011;39910;47.154;27.614;2023-11-21T07:13:46;10.88;;;10.38;;
34737;SDS011;39910;47.154;27.614;2023-11-21T07:16:11;10.48;;;9.98;;
34737;SDS011;39910;47.154;27.614;2023-11-21T07:18:37;11.10;;;10.52;;
34737;SDS011;39910;47.154;27.614;2023-11-21T07:21:02;10.38;;;9.88;;
34737;SDS011;39910;47.154;27.614;2023-11-21T07:23:28;10.57;;;10.07;;
34737;SDS011;39910;47.154;27.614;2023-11-21T07:25:54;10.75;;;10.25;;
34737;SDS011;39910;47.154;27.614;2023-11-21T07:28:19;9.93;;;9.52;;
34737;SDS011;39910;47.154;27.614;2023-11-21T07:30:44;10.90;;;10.40;;
34737;SDS011;39910;47.154;27.614;2023-11-21T07:33:10;10.65;;;10.15;;
34737;SDS011;39910;47.154;27.614;2023-11-21T07:35:35;10.43;;;9.93;;
34737;SDS011;39910;47.154;27.614;2023-11-21T07:38:01;10.43;;;9.93;;
34737;SDS011;39910;47.154;27.614;2023-11-21T07:40:26;11.43;;;10.82;;
34737;SDS011;39910;47.154;27.614;2023-11-21T07:42:52;11.52;;;10.93;;
34737;SDS011;39910;47.154;27.614;2023-11-21T07:45:17;10.77;;;10.27;;
34737;SDS011;39910;47.154;27.614;2023-11-21T07:47:43;10.35;;;9.85;;
34737;SDS011;39910;47.154;27.614;2023-11-21T07:50:08;11.48;;;10.88;;
34737;SDS011;39910;47.154;27.614;2023-11-21T07:52:34;10.60;;;10.10;;
34737;SDS011;39910;47.154;27.614;2023-11-21T07:54:59;12.27;;;11.68;;
34737;SDS011;39910;47.154;27.614;2023-11-21T07:57:24;10.45;;;9.95;;
34737;SDS011;39910;47.154;27.614;2023-11-21T07:59:49;10.85;;;10.35;;
34737;SDS011;39910;47.154;27.614;2023-11-21T08:02:15;11.70;;;11.10;;
34737;SDS011;39910;47.154;27.614;2023-11-21T08:04:42;10.75;;;10.25;;
34737;SDS011;39910;47.154;27.614;2023-11-21T08:07:08;10.82;;;10.32;;
34737;SDS011;39910;47.154;27.614;2023-11-21T08:09:34;11.45;;;10.90;;
34737;SDS011;39910;47.154;27.614;2023-11-21T08:12:00;11.73;;;11.13;;
34737;SDS011;39910;47.154;27.614;2023-11-21T08:14:27;11.18;;;10.68;;
34737;SDS011;39910;47.154;27.614;2023-11-21T08:16:52;10.30;;;9.80;;
34737;SDS011;39910;47.154;27.614;2023-11-21T08:19:22;10.88;;;10.38;;
34737;SDS011;39910;47.154;27.614;2023-11-21T08:21:49;11.65;;;11.05;;
34737;SDS011;39910;47.154;27.614;2023-11-21T08:24:15;11.13;;;10.63;;
34737;SDS011;39910;47.154;27.614;2023-11-21T08:26:40;10.73;;;10.23;;
34737;SDS011;39910;47.154;27.614;2023-11-21T08:29:05;11.10;;;10.57;;
34737;SDS011;39910;47.154;27.614;2023-11-21T08:31:34;11.73;;;11.13;;
34737;SDS011;39910;47.154;27.614;2023-11-21T08:33:59;10.40;;;9.90;;
34737;SDS011;39910;47.154;27.614;2023-11-21T08:36:27;10.63;;;10.13;;
34737;SDS011;39910;47.154;27.614;2023-11-21T08:38:53;11.45;;;10.85;;
34737;SDS011;39910;47.154;27.614;2023-11-21T08:41:18;11.68;;;11.07;;
34737;SDS011;39910;47.154;27.614;2023-11-21T08:43:47;10.45;;;9.95;;
34737;SDS011;39910;47.154;27.614;2023-11-21T08:46:13;10.48;;;9.98;;
34737;SDS011;39910;47.154;27.614;2023-11-21T08:48:38;11.32;;;10.73;;
34737;SDS011;39910;47.154;27.614;2023-11-21T08:51:04;10.60;;;10.10;;
34737;SDS011;39910;47.154;27.614;2023-11-21T08:53:29;11.98;;;11.38;;
34737;SDS011;39910;47.154;27.614;2023-11-21T08:55:56;10.88;;;10.38;;
34737;SDS011;39910;47.154;27.614;2023-11-21T08:58:21;10.82;;;10.32;;
34737;SDS011;39910;47.154;27.614;2023-11-21T09:00:47;10.82;;;10.32;;
34737;SDS011;39910;47.154;27.614;2023-11-21T09:03:12;10.75;;;10.25;;
34737;SDS011;39910;47.154;27.614;2023-11-21T09:05:38;11.65;;;11.05;;
34737;SDS011;39910;47.154;27.614;2023-11-21T09:08:04;11.13;;;10.63;;
34737;SDS011;39910;47.154;27.614;2023-11-21T09:10:30;11.00;;;10.50;;
34737;SDS011;39910;47.154;27.614;2023-11-21T09:12:55;11.20;;;10.70;;
34737;SDS011;39910;47.154;27.614;2023-11-21T09:15:21;11.52;;;10.93;;
34737;SDS011;39910;47.154;27.614;2023-11-21T09:17:46;10.85;;;10.35;;
34737;SDS011;39910;47.154;27.614;2023-11-21T09:20:11;10.90;;;10.40;;
34737;SDS011;39910;47.154;27.614;2023-11-21T09:22:37;10.45;;;9.95;;
34737;SDS011;39910;47.154;27.614;2023-11-21T09:25:02;11.10;;;10.60;;
34737;SDS011;39910;47.154;27.614;2023-11-21T09:27:30;11.30;;;10.80;;
34737;SDS011;39910;47.154;27.614;2023-11-21T09:29:55;10.65;;;10.15;;
34737;SDS011;39910;47.154;27.614;2023-11-21T09:32:23;10.60;;;10.10;;
34737;SDS011;39910;47.154;27.614;2023-11-21T09:34:48;11.13;;;10.63;;
34737;SDS011;39910;47.154;27.614;2023-11-21T09:37:14;11.13;;;10.63;;
34737;SDS011;39910;47.154;27.614;2023-11-21T09:39:39;11.38;;;10.80;;
34737;SDS011;39910;47.154;27.614;2023-11-21T09:42:09;10.88;;;10.38;;
34737;SDS011;39910;47.154;27.614;2023-11-21T09:44:39;11.05;;;10.55;;
34737;SDS011;39910;47.154;27.614;2023-11-21T09:47:08;11.32;;;10.82;;
34737;SDS011;39910;47.154;27.614;2023-11-21T09:49:35;11.77;;;11.18;;
34737;SDS011;39910;47.154;27.614;2023-11-21T09:52:02;11.13;;;10.63;;
34737;SDS011;39910;47.154;27.614;2023-11-21T09:54:31;11.35;;;10.82;;
34737;SDS011;39910;47.154;27.614;2023-11-21T09:56:57;11.15;;;10.65;;
34737;SDS011;39910;47.154;27.614;2023-11-21T09:59:24;10.93;;;10.43;;
34737;SDS011;39910;47.154;27.614;2023-11-21T10:01:53;10.60;;;10.10;;
34737;SDS011;39910;47.154;27.614;2023-11-21T10:04:19;11.20;;;10.70;;
34737;SDS011;39910;47.154;27.614;2023-11-21T10:06:45;11.65;;;11.05;;
34737;SDS011;39910;47.154;27.614;2023-11-21T10:09:12;10.93;;;10.43;;
34737;SDS011;39910;47.154;27.614;2023-11-21T10:11:41;12.20;;;11.60;;
34737;SDS011;39910;47.154;27.614;2023-11-21T10:14:10;10.75;;;10.25;;
34737;SDS011;39910;47.154;27.614;2023-11-21T10:16:38;10.80;;;10.30;;
34737;SDS011;39910;47.154;27.614;2023-11-21T10:19:04;10.57;;;10.07;;
34737;SDS011;39910;47.154;27.614;2023-11-21T10:21:32;11.15;;;10.65;;
34737;SDS011;39910;47.154;27.614;2023-11-21T10:23:58;11.65;;;11.05;;
34737;SDS011;39910;47.154;27.614;2023-11-21T10:26:23;11.20;;;10.70;;
34737;SDS011;39910;47.154;27.614;2023-11-21T10:28:56;12.05;;;11.45;;
34737;SDS011;39910;47.154;27.614;2023-11-21T10:31:22;10.63;;;10.13;;
34737;SDS011;39910;47.154;27.614;2023-11-21T10:33:49;11.93;;;11.32;;
34737;SDS011;39910;47.154;27.614;2023-11-21T10:36:22;11.30;;;10.80;;
34737;SDS011;39910;47.154;27.614;2023-11-21T10:38:49;11.40;;;10.90;;
34737;SDS011;39910;47.154;27.614;2023-11-21T10:41:18;11.10;;;10.60;;
34737;SDS011;39910;47.154;27.614;2023-11-21T10:43:43;11.25;;;10.75;;
34737;SDS011;39910;47.154;27.614;2023-11-21T10:46:09;11.73;;;11.13;;
34737;SDS011;39910;47.154;27.614;2023-11-21T10:48:34;11.73;;;11.13;;
34737;SDS011;39910;47.154;27.614;2023-11-21T10:51:01;11.93;;;11.32;;
34737;SDS011;39910;47.154;27.614;2023-11-21T10:53:31;11.07;;;10.57;;
34737;SDS011;39910;47.154;27.614;2023-11-21T10:56:04;11.05;;;10.55;;
34737;SDS011;39910;47.154;27.614;2023-11-21T10:58:32;11.13;;;10.63;;
34737;SDS011;39910;47.154;27.614;2023-11-21T11:00:58;11.93;;;11.32;;
34737;SDS011;39910;47.154;27.614;2023-11-21T11:03:24;11.07;;;10.57;;
34737;SDS011;39910;47.154;27.614;2023-11-21T11:05:50;11.55;;;11.00;;
34737;SDS011;39910;47.154;27.614;2023-11-21T11:08:18;10.88;;;10.38;;
34737;SDS011;39910;47.154;27.614;2023-11-21T11:10:46;11.35;;;10.85;;
34737;SDS011;39910;47.154;27.614;2023-11-21T11:13:15;11.27;;;10.77;;
34737;SDS011;39910;47.154;27.614;2023-11-21T11:15:41;11.45;;;10.95;;
34737;SDS011;39910;47.154;27.614;2023-11-21T11:18:07;11.57;;;11.02;;
34737;SDS011;39910;47.154;27.614;2023-11-21T11:20:34;10.70;;;10.20;;
34737;SDS011;39910;47.154;27.614;2023-11-21T11:28:20;10.98;;;10.48;;
34737;SDS011;39910;47.154;27.614;2023-11-21T11:33:14;11.93;;;11.32;;
34737;SDS011;39910;47.154;27.614;2023-11-21T11:38:12;11.70;;;11.10;;
34737;SDS011;39910;47.154;27.614;2023-11-21T11:40:45;11.98;;;11.38;;
34737;SDS011;39910;47.154;27.614;2023-11-21T11:43:10;11.20;;;10.70;;
34737;SDS011;39910;47.154;27.614;2023-11-21T11:45:37;11.20;;;10.70;;
34737;SDS011;39910;47.154;27.614;2023-11-21T11:48:06;11.57;;;11.05;;
34737;SDS011;39910;47.154;27.614;2023-11-21T11:50:32;11.68;;;11.13;;
34737;SDS011;39910;47.154;27.614;2023-11-21T11:53:13;11.80;;;11.20;;
34737;SDS011;39910;47.154;27.614;2023-11-21T11:55:39;11.63;;;11.13;;
34737;SDS011;39910;47.154;27.614;2023-11-21T11:58:05;11.55;;;11.05;;
34737;SDS011;39910;47.154;27.614;2023-11-21T12:00:34;11.60;;;11.10;;
34737;SDS011;39910;47.154;27.614;2023-11-21T12:03:02;11.85;;;11.30;;
34737;SDS011;39910;47.154;27.614;2023-11-21T12:05:28;12.07;;;11.48;;
34737;SDS011;39910;47.154;27.614;2023-11-21T12:07:57;11.93;;;11.32;;
34737;SDS011;39910;47.154;27.614;2023-11-21T12:10:24;12.45;;;11.85;;
34737;SDS011;39910;47.154;27.614;2023-11-21T12:12:54;11.70;;;11.20;;
34737;SDS011;39910;47.154;27.614;2023-11-21T12:15:19;11.55;;;11.05;;
34737;SDS011;39910;47.154;27.614;2023-11-21T12:17:46;11.43;;;10.93;;
34737;SDS011;39910;47.154;27.614;2023-11-21T12:20:12;11.15;;;10.65;;
34737;SDS011;39910;47.154;27.614;2023-11-21T12:25:13;11.52;;;11.02;;
34737;SDS011;39910;47.154;27.614;2023-11-21T12:27:41;11.88;;;11.27;;
34737;SDS011;39910;47.154;27.614;2023-11-21T12:30:06;11.27;;;10.77;;
34737;SDS011;39910;47.154;27.614;2023-11-21T12:32:38;11.95;;;11.35;;
34737;SDS011;39910;47.154;27.614;2023-11-21T12:35:03;12.20;;;11.60;;
34737;SDS011;39910;47.154;27.614;2023-11-21T12:37:31;11.30;;;10.80;;
34737;SDS011;39910;47.154;27.614;2023-11-21T12:39:57;11.60;;;11.10;;
34737;SDS011;39910;47.154;27.614;2023-11-21T12:42:23;11.98;;;11.38;;
34737;SDS011;39910;47.154;27.614;2023-11-21T12:44:48;11.75;;;11.23;;
34737;SDS011;39910;47.154;27.614;2023-11-21T12:47:16;11.35;;;10.85;;
34737;SDS011;39910;47.154;27.614;2023-11-21T12:49:42;11.40;;;10.90;;
34737;SDS011;39910;47.154;27.614;2023-11-21T12:52:09;12.15;;;11.55;;
34737;SDS011;39910;47.154;27.614;2023-11-21T12:54:34;12.13;;;11.52;;
34737;SDS011;39910;47.154;27.614;2023-11-21T12:57:00;11.98;;;11.38;;
34737;SDS011;39910;47.154;27.614;2023-11-21T12:59:27;12.52;;;11.93;;
34737;SDS011;39910;47.154;27.614;2023-11-21T13:01:53;11.80;;;11.20;;
34737;SDS011;39910;47.154;27.614;2023-11-21T13:04:29;11.70;;;11.13;;
34737;SDS011;39910;47.154;27.614;2023-11-21T13:06:54;11.10;;;10.60;;
34737;SDS011;39910;47.154;27.614;2023-11-21T13:09:21;11.40;;;10.90;;
34737;SDS011;39910;47.154;27.614;2023-11-21T13:11:46;12.23;;;11.63;;
34737;SDS011;39910;47.154;27.614;2023-11-21T13:14:12;12.13;;;11.52;;
34737;SDS011;39910;47.154;27.614;2023-11-21T13:16:37;12.48;;;11.88;;
34737;SDS011;39910;47.154;27.614;2023-11-21T13:19:04;11.30;;;10.80;;
34737;SDS011;39910;47.154;27.614;2023-11-21T13:21:30;12.27;;;11.68;;
34737;SDS011;39910;47.154;27.614;2023-11-21T13:23:55;11.95;;;11.35;;
34737;SDS011;39910;47.154;27.614;2023-11-21T13:26:21;11.70;;;11.13;;
34737;SDS011;39910;47.154;27.614;2023-11-21T13:28:48;12.60;;;12.00;;
34737;SDS011;39910;47.154;27.614;2023-11-21T13:31:13;11.13;;;10.63;;
34737;SDS011;39910;47.154;27.614;2023-11-21T13:33:52;11.88;;;11.27;;
34737;SDS011;39910;47.154;27.614;2023-11-21T13:36:23;11.60;;;11.07;;
34737;SDS011;39910;47.154;27.614;2023-11-21T13:38:50;11.73;;;11.13;;
34737;SDS011;39910;47.154;27.614;2023-11-21T13:41:15;12.05;;;11.45;;
34737;SDS011;39910;47.154;27.614;2023-11-21T13:43:42;11.32;;;10.82;;
34737;SDS011;39910;47.154;27.614;2023-11-21T13:46:15;12.20;;;11.60;;
34737;SDS011;39910;47.154;27.614;2023-11-21T13:48:46;11.85;;;11.25;;
34737;SDS011;39910;47.154;27.614;2023-11-21T13:51:21;10.90;;;10.40;;
34737;SDS011;39910;47.154;27.614;2023-11-21T13:53:55;11.23;;;10.73;;
34737;SDS011;39910;47.154;27.614;2023-11-21T13:56:20;11.30;;;10.80;;
34737;SDS011;39910;47.154;27.614;2023-11-21T13:58:49;12.15;;;11.55;;
34737;SDS011;39910;47.154;27.614;2023-11-21T14:01:23;11.98;;;11.38;;
34737;SDS011;39910;47.154;27.614;2023-11-21T14:03:55;11.38;;;10.88;;
34737;SDS011;39910;47.154;27.614;2023-11-21T14:06:22;11.48;;;10.95;;
34737;SDS011;39910;47.154;27.614;2023-11-21T14:08:55;12.35;;;11.75;;
34737;SDS011;39910;47.154;27.614;2023-11-21T14:11:21;11.60;;;11.00;;
34737;SDS011;39910;47.154;27.614;2023-11-21T14:13:47;11.18;;;10.68;;
34737;SDS011;39910;47.154;27.614;2023-11-21T14:16:14;11.35;;;10.85;;
34737;SDS011;39910;47.154;27.614;2023-11-21T14:18:39;11.15;;;10.65;;
34737;SDS011;39910;47.154;27.614;2023-11-21T14:21:17;11.57;;;11.05;;